Terminal Aerodrome Forecast
Issued by NWS Pocatello, ID

Home | Current Version | Previous Version | Text Only | Print | Product List | Glossary On
Versions: 1 2 3 4 5 6 7 8 9 10 11 12 13 14 15
000
FTUS45 KPIH 230520
TAFIDA
TAF
KIDA 230520Z 2306/2406 36015G35KT 5SM -RA BR VCTS SCT030 BKN040CB
      OVC100
     FM230830 VRB06KT P6SM -SHRA OVC030
     FM231200 24010G20KT P6SM OVC010
     FM231800 35008KT P6SM BKN035 OVC050=

USA.gov is the U.S. government's official web portal to all federal, state and local government web resources and services.